This is the latest recevied weather packets stored in our database for station/object DB7GV-8. If no packets are shown the sender has not sent any weather packets the latest 1 day(s).
| Time | Temp. | Humidity | Pressure | Rain* | Wind** | Luminosity | Snow |
|---|---|---|---|---|---|---|---|
| 1778092487 | 10.56° C | 81% | 1011.2 hPa | - | - | - | - |
| 1778091582 | 11.11° C | 80% | 1011.1 hPa | - | - | - | - |
| 1778089770 | 11.11° C | 79% | 1010.9 hPa | - | - | - | - |
| 1778088865 | 11.67° C | 78% | 1010.8 hPa | - | - | - | - |
| 1778086149 | 11.67° C | 73% | 1010.3 hPa | - | - | - | - |
| 1778083433 | 12.22° C | 71% | 1010.4 hPa | - | - | - | - |
| 1778081622 | 12.78° C | 72% | 1010.4 hPa | - | - | - | - |
| 1778080717 | 12.78° C | 74% | 1010.2 hPa | - | - | - | - |
| 1778078905 | 12.78° C | 77% | 1010 hPa | - | - | - | - |
| 1778078000 | 12.78° C | 74% | 1010 hPa | - | - | - | - |
| 1778077095 | 12.78° C | 74% | 1009.9 hPa | - | - | - | - |
| 1778074378 | 13.89° C | 72% | 1009.4 hPa | - | - | - | - |
| 1778073473 | 14.44° C | 70% | 1009.2 hPa | - | - | - | - |
| 1778071662 | 16.11° C | 63% | 1008.5 hPa | - | - | - | - |
| 1778069851 | 17.22° C | 60% | 1008.1 hPa | - | - | - | - |
| 1778067135 | 17.22° C | 66% | 1008 hPa | - | - | - | - |
| 1778066230 | 17.22° C | 66% | 1008.1 hPa | - | - | - | - |
| 1778060797 | 15° C | 69% | 1008.4 hPa | - | - | - | - |
| 1778058081 | 15° C | 67% | 1008.5 hPa | - | - | - | - |
| 1778055365 | 17.78° C | 56% | 1008.1 hPa | - | - | - | - |
| 1778054460 | 23.33° C | 47% | 1008.3 hPa | - | - | - | - |
| 1778052649 | 22.78° C | 48% | 1008.4 hPa | - | - | - | - |
| 1778049932 | 12.78° C | 87% | 1008.6 hPa | - | - | - | - |
| 1778049027 | 10.56° C | 89% | 1008.5 hPa | - | - | - | - |
| 1778047216 | 10° C | 89% | 1008.5 hPa | - | - | - | - |
* Rain since midnight (hover to see other rain measurements)
** Current wind speed in m/s (hover to see current wind gust speed)